createdAt,value
2018-10-18T00:00:01.878Z,927.43
2018-10-18T00:00:15.655Z,927.46
2018-10-18T00:00:28.267Z,927.45
2018-10-18T00:00:40.805Z,927.48
2018-10-18T00:00:53.328Z,927.52
2018-10-18T00:01:06.585Z,927.5
2018-10-18T00:01:19.595Z,927.53
2018-10-18T00:01:31.206Z,927.57
2018-10-18T00:01:43.716Z,927.55
2018-10-18T00:01:56.771Z,927.54
2018-10-18T00:02:09.943Z,927.56
2018-10-18T00:02:23.316Z,927.59
2018-10-18T00:02:35.451Z,927.6
2018-10-18T00:02:47.569Z,927.58
2018-10-18T00:03:00.608Z,927.58
2018-10-18T00:03:12.749Z,927.59
2018-10-18T00:03:26.359Z,927.62
2018-10-18T00:03:39.389Z,927.65
2018-10-18T00:03:51.938Z,927.67
2018-10-18T00:04:04.958Z,927.67
2018-10-18T00:04:17.092Z,927.68
2018-10-18T00:04:29.128Z,927.62
2018-10-18T00:04:41.677Z,927.67
2018-10-18T00:04:54.686Z,927.69
2018-10-18T00:05:05.815Z,927.68
2018-10-18T00:05:17.815Z,927.7
2018-10-18T00:05:29.933Z,927.69
2018-10-18T00:05:42.010Z,927.69
2018-10-18T00:05:55.135Z,927.72
2018-10-18T00:06:08.060Z,927.66
2018-10-18T00:06:20.482Z,927.69
2018-10-18T00:06:32.992Z,927.69
2018-10-18T00:06:45.520Z,927.69
2018-10-18T00:06:58.525Z,927.71
2018-10-18T00:07:11.508Z,927.71
2018-10-18T00:07:24.111Z,927.73
2018-10-18T00:07:37.138Z,927.68
2018-10-18T00:07:50.102Z,927.7
2018-10-18T00:08:01.845Z,927.7
2018-10-18T00:08:14.092Z,927.71
2018-10-18T00:08:27.215Z,927.66
2018-10-18T00:08:39.301Z,927.69
2018-10-18T00:08:52.340Z,927.7
2018-10-18T00:09:03.924Z,927.73
2018-10-18T00:09:15.977Z,927.74
2018-10-18T00:09:29.003Z,927.66
2018-10-18T00:09:41.060Z,927.72
2018-10-18T00:09:53.610Z,927.73
2018-10-18T00:10:05.659Z,927.75
2018-10-18T00:10:18.224Z,927.72
2018-10-18T00:10:30.812Z,927.71
2018-10-18T00:10:42.440Z,927.73
2018-10-18T00:10:54.500Z,927.76
2018-10-18T00:11:07.515Z,927.77
2018-10-18T00:11:20.008Z,927.78
2018-10-18T00:11:33.014Z,927.8
2018-10-18T00:11:45.080Z,927.77
2018-10-18T00:11:58.226Z,927.8
2018-10-18T00:12:11.958Z,927.79
2018-10-18T00:12:24.169Z,927.8
2018-10-18T00:12:35.274Z,927.82
2018-10-18T00:12:47.288Z,927.81
2018-10-18T00:13:00.303Z,927.81
2018-10-18T00:13:13.298Z,927.82
2018-10-18T00:13:26.259Z,927.83
2018-10-18T00:13:38.364Z,927.86
2018-10-18T00:13:51.444Z,927.86
2018-10-18T00:14:04.244Z,927.84
2018-10-18T00:14:17.515Z,927.83
2018-10-18T00:14:29.186Z,927.88
2018-10-18T00:14:41.729Z,927.89
2018-10-18T00:14:54.284Z,927.86
2018-10-18T00:15:06.816Z,927.89
2018-10-18T00:15:19.842Z,927.87
2018-10-18T00:15:32.844Z,927.87
2018-10-18T00:15:45.344Z,927.86
2018-10-18T00:15:57.853Z,927.88
2018-10-18T00:16:10.602Z,927.92
2018-10-18T00:16:23.551Z,927.88
2018-10-18T00:16:36.094Z,927.9
2018-10-18T00:16:48.637Z,927.91
2018-10-18T00:17:00.665Z,927.92
2018-10-18T00:17:12.794Z,927.92
2018-10-18T00:17:24.867Z,927.93
2018-10-18T00:17:36.927Z,927.91
2018-10-18T00:17:49.837Z,927.94
2018-10-18T00:18:02.956Z,927.93
2018-10-18T00:18:16.070Z,927.95
2018-10-18T00:18:29.186Z,927.96
2018-10-18T00:18:41.261Z,927.94
2018-10-18T00:18:54.290Z,927.96
2018-10-18T00:19:06.795Z,928
2018-10-18T00:19:19.306Z,927.98
2018-10-18T00:19:31.885Z,927.98
2018-10-18T00:19:44.431Z,928
2018-10-18T00:19:56.579Z,927.98
2018-10-18T00:20:09.926Z,927.99
2018-10-18T00:20:23.406Z,928.02
2018-10-18T00:20:36.440Z,928
2018-10-18T00:20:49.421Z,928.02
2018-10-18T00:21:01.906Z,927.99
2018-10-18T00:21:14.458Z,928.01
2018-10-18T00:21:27.452Z,928.01
2018-10-18T00:21:40.408Z,928.02
2018-10-18T00:21:52.539Z,928.04
2018-10-18T00:22:05.582Z,928.01
2018-10-18T00:22:18.615Z,928.02
2018-10-18T00:22:31.635Z,928.06
2018-10-18T00:22:44.175Z,928.06
2018-10-18T00:22:56.716Z,928.04
2018-10-18T00:23:09.728Z,928.04
2018-10-18T00:23:22.199Z,928.04
2018-10-18T00:23:35.253Z,928.01
2018-10-18T00:23:48.256Z,928.01
2018-10-18T00:24:01.423Z,928.02
2018-10-18T00:24:15.135Z,928.03
2018-10-18T00:24:27.283Z,928.05
2018-10-18T00:24:39.832Z,928.07
2018-10-18T00:24:52.368Z,928.02
2018-10-18T00:25:05.385Z,928.03
2018-10-18T00:25:17.878Z,928.02
2018-10-18T00:25:30.828Z,928.06
2018-10-18T00:25:43.861Z,928.04
2018-10-18T00:25:56.490Z,928.04
2018-10-18T00:26:09.413Z,928.04
2018-10-18T00:26:22.363Z,928.05
2018-10-18T00:26:34.909Z,928.05
2018-10-18T00:26:47.403Z,928.03
2018-10-18T00:27:00.403Z,928.05
2018-10-18T00:27:12.883Z,928.04
2018-10-18T00:27:25.352Z,928.01
2018-10-18T00:27:38.384Z,928.06
2018-10-18T00:27:50.924Z,928.05
2018-10-18T00:28:03.892Z,928.02
2018-10-18T00:28:16.891Z,928.03
2018-10-18T00:28:29.962Z,928.02
2018-10-18T00:28:42.529Z,928.03
2018-10-18T00:28:55.038Z,928.05
2018-10-18T00:29:08.054Z,928.01
2018-10-18T00:29:21.112Z,928.03
2018-10-18T00:29:33.209Z,928.04
2018-10-18T00:29:45.310Z,928.01
2018-10-18T00:29:57.923Z,928.02
2018-10-18T00:30:10.906Z,928.05
2018-10-18T00:30:24.569Z,928.05
2018-10-18T00:30:37.659Z,928.05
2018-10-18T00:30:50.129Z,928.01
2018-10-18T00:31:02.613Z,928.03
2018-10-18T00:31:15.451Z,928
2018-10-18T00:31:28.498Z,928.02
2018-10-18T00:31:40.517Z,928.06
2018-10-18T00:31:53.158Z,928.06
2018-10-18T00:32:06.406Z,928.07
2018-10-18T00:32:19.332Z,928.05
2018-10-18T00:32:32.366Z,928.07
2018-10-18T00:32:44.896Z,928.06
2018-10-18T00:32:57.910Z,928.08
2018-10-18T00:33:10.967Z,928.06
2018-10-18T00:33:22.979Z,928.09
2018-10-18T00:33:35.011Z,928.08
2018-10-18T00:33:47.172Z,928.07
2018-10-18T00:33:59.233Z,928.09
2018-10-18T00:34:12.249Z,928.05
2018-10-18T00:34:24.781Z,928.06
2018-10-18T00:34:37.743Z,928.07
2018-10-18T00:34:50.767Z,928.09
2018-10-18T00:35:02.850Z,928.1
2018-10-18T00:35:14.983Z,928.08
2018-10-18T00:35:28.019Z,928.1
2018-10-18T00:35:40.995Z,928.15
2018-10-18T00:35:53.092Z,928.13
2018-10-18T00:36:05.554Z,928.13
2018-10-18T00:36:18.854Z,928.14
2018-10-18T00:36:31.426Z,928.11
2018-10-18T00:36:44.024Z,928.13
2018-10-18T00:36:56.539Z,928.14
2018-10-18T00:37:09.070Z,928.1
2018-10-18T00:37:21.180Z,928.11
2018-10-18T00:37:34.232Z,928.09
2018-10-18T00:37:46.800Z,928.12
2018-10-18T00:38:00.015Z,928.11
2018-10-18T00:38:12.504Z,928.1
2018-10-18T00:38:25.124Z,928.13
2018-10-18T00:38:38.128Z,928.13
2018-10-18T00:38:51.061Z,928.13
2018-10-18T00:39:03.146Z,928.1
2018-10-18T00:39:16.062Z,928.1
2018-10-18T00:39:29.064Z,928.11
2018-10-18T00:39:42.110Z,928.11
2018-10-18T00:39:54.172Z,928.13
2018-10-18T00:40:06.689Z,928.1
2018-10-18T00:40:19.638Z,928.11
2018-10-18T00:40:32.621Z,928.12
2018-10-18T00:40:45.081Z,928.12
2018-10-18T00:40:58.116Z,928.13
2018-10-18T00:41:10.670Z,928.13
2018-10-18T00:41:23.697Z,928.13
2018-10-18T00:41:36.744Z,928.18
2018-10-18T00:41:49.743Z,928.13
2018-10-18T00:42:01.428Z,928.15
2018-10-18T00:42:15.035Z,928.15
2018-10-18T00:42:27.806Z,928.13
2018-10-18T00:42:40.746Z,928.17
2018-10-18T00:42:53.305Z,928.17
2018-10-18T00:43:05.843Z,928.2
2018-10-18T00:43:18.453Z,928.18
2018-10-18T00:43:30.965Z,928.16
2018-10-18T00:43:43.501Z,928.18
2018-10-18T00:43:56.217Z,928.16
2018-10-18T00:44:09.715Z,928.17
2018-10-18T00:44:23.202Z,928.18
2018-10-18T00:44:36.218Z,928.15
2018-10-18T00:44:48.741Z,928.15
2018-10-18T00:45:01.281Z,928.17
2018-10-18T00:45:14.258Z,928.16
2018-10-18T00:45:27.295Z,928.17
2018-10-18T00:45:40.251Z,928.19
2018-10-18T00:45:52.767Z,928.18
2018-10-18T00:46:05.346Z,928.16
2018-10-18T00:46:17.669Z,928.18
2018-10-18T00:46:30.208Z,928.17
2018-10-18T00:46:42.332Z,928.2
2018-10-18T00:46:55.309Z,928.23
2018-10-18T00:47:07.830Z,928.2
2018-10-18T00:47:20.820Z,928.21
2018-10-18T00:47:33.806Z,928.22
2018-10-18T00:47:46.781Z,928.22
2018-10-18T00:47:59.428Z,928.22
2018-10-18T00:48:12.377Z,928.24
2018-10-18T00:48:25.624Z,928.22
2018-10-18T00:48:38.152Z,928.21
2018-10-18T00:48:51.169Z,928.21
2018-10-18T00:49:04.142Z,928.22
2018-10-18T00:49:17.166Z,928.21
2018-10-18T00:49:29.735Z,928.24
2018-10-18T00:49:42.653Z,928.26
2018-10-18T00:49:55.223Z,928.23
2018-10-18T00:50:07.498Z,928.23
2018-10-18T00:50:21.235Z,928.23
2018-10-18T00:50:34.302Z,928.22
2018-10-18T00:50:47.287Z,928.28
2018-10-18T00:50:59.334Z,928.25
2018-10-18T00:51:11.835Z,928.21
2018-10-18T00:51:24.653Z,928.26
2018-10-18T00:51:37.639Z,928.26
2018-10-18T00:51:50.672Z,928.23
2018-10-18T00:52:03.695Z,928.27
2018-10-18T00:52:16.195Z,928.23
2018-10-18T00:52:28.320Z,928.27
2018-10-18T00:52:41.317Z,928.28
2018-10-18T00:52:54.282Z,928.27
2018-10-18T00:53:06.817Z,928.25
2018-10-18T00:53:19.789Z,928.26
2018-10-18T00:53:32.799Z,928.24
2018-10-18T00:53:45.771Z,928.26
2018-10-18T00:53:58.911Z,928.26
2018-10-18T00:54:12.519Z,928.29
2018-10-18T00:54:25.384Z,928.29
2018-10-18T00:54:38.291Z,928.23
2018-10-18T00:54:51.286Z,928.25
2018-10-18T00:55:03.842Z,928.26
2018-10-18T00:55:16.393Z,928.29
2018-10-18T00:55:29.476Z,928.26
2018-10-18T00:55:41.991Z,928.25
2018-10-18T00:55:55.065Z,928.29
2018-10-18T00:56:08.479Z,928.29
2018-10-18T00:56:21.897Z,928.31
2018-10-18T00:56:34.485Z,928.29
2018-10-18T00:56:46.539Z,928.31
2018-10-18T00:56:58.614Z,928.3
2018-10-18T00:57:11.157Z,928.3
2018-10-18T00:57:23.701Z,928.28
2018-10-18T00:57:36.268Z,928.26
2018-10-18T00:57:49.226Z,928.27
2018-10-18T00:58:02.204Z,928.29
2018-10-18T00:58:14.702Z,928.31
2018-10-18T00:58:27.679Z,928.29
2018-10-18T00:58:40.257Z,928.29
2018-10-18T00:58:53.324Z,928.3
2018-10-18T00:59:06.355Z,928.34
2018-10-18T00:59:19.355Z,928.31
2018-10-18T00:59:31.445Z,928.35
2018-10-18T00:59:43.970Z,928.31
2018-10-18T00:59:57.051Z,928.3
2018-10-18T01:00:09.875Z,928.35
2018-10-18T01:00:22.824Z,928.3
2018-10-18T01:00:35.342Z,928.29
2018-10-18T01:00:48.322Z,928.32
2018-10-18T01:01:00.879Z,928.3
2018-10-18T01:01:13.407Z,928.3
2018-10-18T01:01:26.878Z,928.3
2018-10-18T01:01:39.455Z,928.31
2018-10-18T01:01:52.462Z,928.34
2018-10-18T01:02:05.953Z,928.31
2018-10-18T01:02:19.611Z,928.3
2018-10-18T01:02:32.672Z,928.31
2018-10-18T01:02:45.233Z,928.34
2018-10-18T01:02:57.734Z,928.3
2018-10-18T01:03:10.380Z,928.31
2018-10-18T01:03:23.420Z,928.34
2018-10-18T01:03:36.459Z,928.33
2018-10-18T01:03:49.455Z,928.37
2018-10-18T01:04:02.034Z,928.36
2018-10-18T01:04:14.477Z,928.31
2018-10-18T01:04:27.538Z,928.32
2018-10-18T01:04:40.510Z,928.33
2018-10-18T01:04:52.111Z,928.35
2018-10-18T01:05:05.130Z,928.32
2018-10-18T01:05:17.650Z,928.32
2018-10-18T01:05:30.171Z,928.32
2018-10-18T01:05:42.686Z,928.38
2018-10-18T01:05:55.266Z,928.35
2018-10-18T01:06:08.097Z,928.34
2018-10-18T01:06:21.576Z,928.32
2018-10-18T01:06:34.124Z,928.35
2018-10-18T01:06:47.132Z,928.33
2018-10-18T01:07:00.148Z,928.33
2018-10-18T01:07:12.701Z,928.34
2018-10-18T01:07:25.225Z,928.34
2018-10-18T01:07:37.299Z,928.35
2018-10-18T01:07:50.266Z,928.36
2018-10-18T01:08:02.386Z,928.34
2018-10-18T01:08:15.339Z,928.36
2018-10-18T01:08:28.555Z,928.36
2018-10-18T01:08:41.610Z,928.38
2018-10-18T01:08:54.232Z,928.36
2018-10-18T01:09:06.786Z,928.4
2018-10-18T01:09:19.373Z,928.36
2018-10-18T01:09:31.883Z,928.38
2018-10-18T01:09:43.908Z,928.38
2018-10-18T01:09:56.898Z,928.35
2018-10-18T01:10:09.465Z,928.35
2018-10-18T01:10:22.529Z,928.36
2018-10-18T01:10:34.663Z,928.36
2018-10-18T01:10:47.652Z,928.4
2018-10-18T01:10:59.705Z,928.36
2018-10-18T01:11:12.221Z,928.34
2018-10-18T01:11:24.254Z,928.38
2018-10-18T01:11:36.793Z,928.38
2018-10-18T01:11:49.800Z,928.36
2018-10-18T01:12:02.257Z,928.35
2018-10-18T01:12:15.576Z,928.37
2018-10-18T01:12:29.997Z,928.37
2018-10-18T01:12:43.198Z,928.37
2018-10-18T01:12:56.512Z,928.37
2018-10-18T01:13:09.507Z,928.35
2018-10-18T01:13:22.063Z,928.34
2018-10-18T01:13:35.122Z,928.34
2018-10-18T01:13:47.653Z,928.33
2018-10-18T01:14:00.788Z,928.33
2018-10-18T01:14:13.811Z,928.32
2018-10-18T01:14:27.231Z,928.33
2018-10-18T01:14:40.238Z,928.32
2018-10-18T01:14:53.228Z,928.33
2018-10-18T01:15:05.306Z,928.35
2018-10-18T01:15:18.312Z,928.32
2018-10-18T01:15:30.878Z,928.34
2018-10-18T01:15:42.941Z,928.32
2018-10-18T01:15:55.453Z,928.3
2018-10-18T01:16:08.415Z,928.33
2018-10-18T01:16:20.946Z,928.3
2018-10-18T01:16:33.925Z,928.31
2018-10-18T01:16:45.980Z,928.32
2018-10-18T01:16:58.973Z,928.3
2018-10-18T01:17:11.951Z,928.31
2018-10-18T01:17:24.913Z,928.31
2018-10-18T01:17:36.974Z,928.32
2018-10-18T01:17:49.469Z,928.31
2018-10-18T01:18:02.859Z,928.34
2018-10-18T01:18:16.080Z,928.34
2018-10-18T01:18:28.005Z,928.31
2018-10-18T01:18:40.567Z,928.35
2018-10-18T01:18:53.086Z,928.32
2018-10-18T01:19:05.643Z,928.33
2018-10-18T01:19:18.618Z,928.33
2018-10-18T01:19:31.149Z,928.32
2018-10-18T01:19:44.154Z,928.35
2018-10-18T01:19:56.819Z,928.33
2018-10-18T01:20:09.631Z,928.32
2018-10-18T01:20:22.587Z,928.35
2018-10-18T01:20:35.665Z,928.32
2018-10-18T01:20:48.625Z,928.3
2018-10-18T01:21:01.149Z,928.34
2018-10-18T01:21:13.279Z,928.32
2018-10-18T01:21:26.519Z,928.32
2018-10-18T01:21:38.596Z,928.32
2018-10-18T01:21:51.679Z,928.33
2018-10-18T01:22:04.254Z,928.33
2018-10-18T01:22:16.807Z,928.31
2018-10-18T01:22:29.874Z,928.32
2018-10-18T01:22:41.945Z,928.29
2018-10-18T01:22:54.450Z,928.31
2018-10-18T01:23:07.555Z,928.29
2018-10-18T01:23:20.064Z,928.3
2018-10-18T01:23:32.691Z,928.29
2018-10-18T01:23:45.249Z,928.29
2018-10-18T01:23:58.425Z,928.28
2018-10-18T01:24:10.879Z,928.26
2018-10-18T01:24:23.843Z,928.26
2018-10-18T01:24:35.897Z,928.23
2018-10-18T01:24:48.909Z,928.26
2018-10-18T01:25:01.494Z,928.24
2018-10-18T01:25:13.998Z,928.23
2018-10-18T01:25:26.593Z,928.25
2018-10-18T01:25:39.605Z,928.21
2018-10-18T01:25:52.654Z,928.18
2018-10-18T01:26:05.426Z,928.2
2018-10-18T01:26:18.033Z,928.18
2018-10-18T01:26:31.094Z,928.2
2018-10-18T01:26:44.154Z,928.19
2018-10-18T01:26:56.673Z,928.18
2018-10-18T01:27:08.729Z,928.19
2018-10-18T01:27:21.187Z,928.15
2018-10-18T01:27:34.155Z,928.14
2018-10-18T01:27:46.723Z,928.16
2018-10-18T01:27:58.754Z,928.14
2018-10-18T01:28:11.807Z,928.19
2018-10-18T01:28:24.319Z,928.15
2018-10-18T01:28:36.829Z,928.13
2018-10-18T01:28:49.866Z,928.13
2018-10-18T01:29:02.963Z,928.1
2018-10-18T01:29:15.927Z,928.09
2018-10-18T01:29:28.525Z,928.07
2018-10-18T01:29:41.505Z,928.09
2018-10-18T01:29:54.571Z,928.08
2018-10-18T01:30:07.783Z,928.09
2018-10-18T01:30:20.343Z,928.09
2018-10-18T01:30:33.320Z,928.1
2018-10-18T01:30:46.280Z,928.07
2018-10-18T01:30:59.294Z,928.07
2018-10-18T01:31:11.771Z,928.08
2018-10-18T01:31:24.780Z,928.07
2018-10-18T01:31:38.068Z,928.07
2018-10-18T01:31:50.640Z,928.04
2018-10-18T01:32:03.531Z,928.07
2018-10-18T01:32:16.047Z,928.02
2018-10-18T01:32:28.639Z,928.04
2018-10-18T01:32:40.730Z,928.03
2018-10-18T01:32:53.246Z,928.05
2018-10-18T01:33:06.257Z,928.05
2018-10-18T01:33:18.752Z,928.02
2018-10-18T01:33:31.803Z,928.05
2018-10-18T01:33:43.860Z,928.05
2018-10-18T01:33:56.466Z,928.04
2018-10-18T01:34:08.996Z,928.02
2018-10-18T01:34:20.588Z,928.02
2018-10-18T01:34:33.602Z,928.02
2018-10-18T01:34:46.111Z,928
2018-10-18T01:34:59.211Z,928.02
2018-10-18T01:35:11.723Z,927.98
2018-10-18T01:35:24.698Z,927.98
2018-10-18T01:35:37.710Z,928.01
2018-10-18T01:35:50.761Z,927.99
2018-10-18T01:36:03.990Z,927.98
2018-10-18T01:36:17.887Z,927.98
2018-10-18T01:36:30.520Z,927.98
2018-10-18T01:36:43.499Z,928
2018-10-18T01:36:56.419Z,927.98
2018-10-18T01:37:08.897Z,927.98
2018-10-18T01:37:21.375Z,927.97
2018-10-18T01:37:34.477Z,927.98
2018-10-18T01:37:47.009Z,927.96
2018-10-18T01:37:59.639Z,927.98
2018-10-18T01:38:12.198Z,927.95
2018-10-18T01:38:25.551Z,927.96
2018-10-18T01:38:38.528Z,927.95
2018-10-18T01:38:51.500Z,927.95
2018-10-18T01:39:03.578Z,927.93
2018-10-18T01:39:16.124Z,927.9
2018-10-18T01:39:29.086Z,927.89
2018-10-18T01:39:41.605Z,927.9
2018-10-18T01:39:54.561Z,927.9
2018-10-18T01:40:06.166Z,927.91
2018-10-18T01:40:18.261Z,927.92
2018-10-18T01:40:31.185Z,927.91
2018-10-18T01:40:43.749Z,927.93
2018-10-18T01:40:55.334Z,927.9
2018-10-18T01:41:08.348Z,927.92
2018-10-18T01:41:21.434Z,927.92
2018-10-18T01:41:33.521Z,927.96
2018-10-18T01:41:46.067Z,927.9
2018-10-18T01:41:58.249Z,927.91
2018-10-18T01:42:11.952Z,927.93
2018-10-18T01:42:25.329Z,927.94
2018-10-18T01:42:38.311Z,927.95
2018-10-18T01:42:51.276Z,927.93
2018-10-18T01:43:03.837Z,927.96
2018-10-18T01:43:16.376Z,927.98
2018-10-18T01:43:28.878Z,927.96
2018-10-18T01:43:41.448Z,927.96
2018-10-18T01:43:54.542Z,927.95
2018-10-18T01:44:08.061Z,927.96
2018-10-18T01:44:21.587Z,927.95
2018-10-18T01:44:34.555Z,927.95
2018-10-18T01:44:46.604Z,927.97
2018-10-18T01:44:58.211Z,927.96
2018-10-18T01:45:10.710Z,927.96
2018-10-18T01:45:23.711Z,927.95
2018-10-18T01:45:35.761Z,927.94
2018-10-18T01:45:48.803Z,927.95
2018-10-18T01:46:01.295Z,927.95
2018-10-18T01:46:14.305Z,927.95
2018-10-18T01:46:27.280Z,927.96
2018-10-18T01:46:40.323Z,927.95
2018-10-18T01:46:52.844Z,927.96
2018-10-18T01:47:05.373Z,927.93
2018-10-18T01:47:18.362Z,927.94
2018-10-18T01:47:31.325Z,927.93
2018-10-18T01:47:43.933Z,927.92
2018-10-18T01:47:57.053Z,927.92
2018-10-18T01:48:09.391Z,927.93
2018-10-18T01:48:21.726Z,927.89
2018-10-18T01:48:34.743Z,927.92
2018-10-18T01:48:47.234Z,927.89
2018-10-18T01:48:59.239Z,927.88
2018-10-18T01:49:11.291Z,927.88
2018-10-18T01:49:23.808Z,927.84
2018-10-18T01:49:36.354Z,927.87
2018-10-18T01:49:49.328Z,927.87
2018-10-18T01:50:02.077Z,927.87
2018-10-18T01:50:14.550Z,927.84
2018-10-18T01:50:27.316Z,927.85
2018-10-18T01:50:39.854Z,927.85
2018-10-18T01:50:52.373Z,927.85
2018-10-18T01:51:04.514Z,927.86
2018-10-18T01:51:16.183Z,927.85
2018-10-18T01:51:29.274Z,927.84
2018-10-18T01:51:42.115Z,927.86
2018-10-18T01:51:54.621Z,927.83
2018-10-18T01:52:06.655Z,927.85
2018-10-18T01:52:19.732Z,927.8
2018-10-18T01:52:32.736Z,927.84
2018-10-18T01:52:45.779Z,927.83
2018-10-18T01:52:57.827Z,927.82
2018-10-18T01:53:10.338Z,927.83
2018-10-18T01:53:22.886Z,927.85
2018-10-18T01:53:34.934Z,927.83
2018-10-18T01:53:47.843Z,927.82
2018-10-18T01:54:01.104Z,927.85
2018-10-18T01:54:14.070Z,927.88
2018-10-18T01:54:27.242Z,927.87
2018-10-18T01:54:39.822Z,927.84
2018-10-18T01:54:52.854Z,927.87
2018-10-18T01:55:05.328Z,927.86
2018-10-18T01:55:17.916Z,927.84
2018-10-18T01:55:30.903Z,927.83
2018-10-18T01:55:43.900Z,927.83
2018-10-18T01:55:56.905Z,927.87
2018-10-18T01:56:09.214Z,927.87
2018-10-18T01:56:22.635Z,927.83
2018-10-18T01:56:35.634Z,927.86
2018-10-18T01:56:48.574Z,927.81
2018-10-18T01:57:01.143Z,927.81
2018-10-18T01:57:14.180Z,927.82
2018-10-18T01:57:26.752Z,927.84
2018-10-18T01:57:39.324Z,927.78
2018-10-18T01:57:52.363Z,927.8
2018-10-18T01:58:04.919Z,927.78
2018-10-18T01:58:17.857Z,927.75
2018-10-18T01:58:30.417Z,927.8
2018-10-18T01:58:43.391Z,927.79
2018-10-18T01:58:55.914Z,927.76
2018-10-18T01:59:08.419Z,927.78
2018-10-18T01:59:21.372Z,927.77
2018-10-18T01:59:34.375Z,927.76
2018-10-18T01:59:46.490Z,927.74
2018-10-18T01:59:59.185Z,927.75
2018-10-18T02:00:12.903Z,927.73
2018-10-18T02:00:25.766Z,927.73
2018-10-18T02:00:38.801Z,927.76
2018-10-18T02:00:51.765Z,927.72
2018-10-18T02:01:03.864Z,927.72
2018-10-18T02:01:16.846Z,927.69
2018-10-18T02:01:29.836Z,927.72
2018-10-18T02:01:43.649Z,927.66
2018-10-18T02:01:56.742Z,927.68
2018-10-18T02:02:09.535Z,927.68
2018-10-18T02:02:22.017Z,927.65
2018-10-18T02:02:35.019Z,927.66
2018-10-18T02:02:48.001Z,927.65
2018-10-18T02:03:00.635Z,927.63
2018-10-18T02:03:12.743Z,927.61
2018-10-18T02:03:25.271Z,927.63
2018-10-18T02:03:37.782Z,927.59
2018-10-18T02:03:50.319Z,927.64
2018-10-18T02:04:03.346Z,927.57
2018-10-18T02:04:15.856Z,927.57
2018-10-18T02:04:28.350Z,927.54
2018-10-18T02:04:40.440Z,927.57
2018-10-18T02:04:52.978Z,927.54
2018-10-18T02:05:05.033Z,927.54
2018-10-18T02:05:18.000Z,927.53
2018-10-18T02:05:31.042Z,927.55
2018-10-18T02:05:43.611Z,927.48
2018-10-18T02:05:56.711Z,927.5
2018-10-18T02:06:09.583Z,927.52
2018-10-18T02:06:22.664Z,927.48
2018-10-18T02:06:35.220Z,927.49
2018-10-18T02:06:47.753Z,927.51
2018-10-18T02:07:00.736Z,927.49
2018-10-18T02:07:12.791Z,927.46
2018-10-18T02:07:25.317Z,927.51
2018-10-18T02:07:37.769Z,927.47
2018-10-18T02:07:50.339Z,927.47
2018-10-18T02:08:03.139Z,927.46
2018-10-18T02:08:16.882Z,927.47
2018-10-18T02:08:29.695Z,927.46
2018-10-18T02:08:41.782Z,927.45
2018-10-18T02:08:54.374Z,927.49
2018-10-18T02:09:06.924Z,927.47
2018-10-18T02:09:19.894Z,927.42
2018-10-18T02:09:32.010Z,927.39
2018-10-18T02:09:44.518Z,927.44
2018-10-18T02:09:57.035Z,927.44
2018-10-18T02:10:09.089Z,927.38
2018-10-18T02:10:22.114Z,927.41
2018-10-18T02:10:35.091Z,927.42
2018-10-18T02:10:48.057Z,927.38
2018-10-18T02:11:00.587Z,927.4
2018-10-18T02:11:13.566Z,927.38
2018-10-18T02:11:26.098Z,927.38
2018-10-18T02:11:38.572Z,927.42
2018-10-18T02:11:51.075Z,927.38
2018-10-18T02:12:04.468Z,927.37
2018-10-18T02:12:17.650Z,927.33
2018-10-18T02:12:29.235Z,927.35
2018-10-18T02:12:41.301Z,927.33
2018-10-18T02:12:54.296Z,927.32
2018-10-18T02:13:06.792Z,927.31
2018-10-18T02:13:19.321Z,927.31
2018-10-18T02:13:32.509Z,927.29
2018-10-18T02:13:45.534Z,927.29
2018-10-18T02:13:58.775Z,927.23
2018-10-18T02:14:10.361Z,927.26
2018-10-18T02:14:22.931Z,927.26
2018-10-18T02:14:35.901Z,927.26
2018-10-18T02:14:48.448Z,927.25
2018-10-18T02:15:00.911Z,927.24
2018-10-18T02:15:13.852Z,927.18
2018-10-18T02:15:26.389Z,927.21
2018-10-18T02:15:39.419Z,927.17
2018-10-18T02:15:51.887Z,927.2
2018-10-18T02:16:04.539Z,927.18
2018-10-18T02:16:17.541Z,927.15
2018-10-18T02:16:30.098Z,927.15
2018-10-18T02:16:43.060Z,927.16
2018-10-18T02:16:56.863Z,927.15
2018-10-18T02:17:09.386Z,927.14
2018-10-18T02:17:22.343Z,927.14
2018-10-18T02:17:34.878Z,927.13
2018-10-18T02:17:46.963Z,927.14
2018-10-18T02:18:00.105Z,927.15
2018-10-18T02:18:12.766Z,927.12
2018-10-18T02:18:26.218Z,927.12
2018-10-18T02:18:38.732Z,927.12
2018-10-18T02:18:50.805Z,927.12
2018-10-18T02:19:04.087Z,927.09
2018-10-18T02:19:17.990Z,927.12
2018-10-18T02:19:30.167Z,927.09
2018-10-18T02:19:42.318Z,927.1
2018-10-18T02:19:54.858Z,927.09
2018-10-18T02:20:07.841Z,927.09
2018-10-18T02:20:19.909Z,927.1
2018-10-18T02:20:32.984Z,927.09
2018-10-18T02:20:45.502Z,927.1
2018-10-18T02:20:58.539Z,927.09
2018-10-18T02:21:11.032Z,927.05
2018-10-18T02:21:24.016Z,927.04
2018-10-18T02:21:36.058Z,927.05
2018-10-18T02:21:48.102Z,927.03
2018-10-18T02:22:01.214Z,927.03
2018-10-18T02:22:14.222Z,926.99
2018-10-18T02:22:26.869Z,926.98
2018-10-18T02:22:39.881Z,926.99
2018-10-18T02:22:52.898Z,927
2018-10-18T02:23:05.948Z,926.97
2018-10-18T02:23:18.497Z,926.97
2018-10-18T02:23:30.632Z,926.95
2018-10-18T02:23:43.704Z,926.96
2018-10-18T02:23:56.313Z,926.92
2018-10-18T02:24:09.953Z,926.92
2018-10-18T02:24:21.571Z,926.86
2018-10-18T02:24:34.562Z,926.88
2018-10-18T02:24:47.085Z,926.91
2018-10-18T02:25:00.233Z,926.9
2018-10-18T02:25:13.845Z,926.86
2018-10-18T02:25:26.148Z,926.88
2018-10-18T02:25:39.141Z,926.86
2018-10-18T02:25:52.208Z,926.85
2018-10-18T02:26:04.693Z,926.84
2018-10-18T02:26:17.696Z,926.83
2018-10-18T02:26:30.263Z,926.82
2018-10-18T02:26:42.328Z,926.82
2018-10-18T02:26:54.837Z,926.85
2018-10-18T02:27:07.805Z,926.83
2018-10-18T02:27:20.710Z,926.8
2018-10-18T02:27:32.831Z,926.82
2018-10-18T02:27:45.821Z,926.79
2018-10-18T02:27:58.421Z,926.8
2018-10-18T02:28:10.965Z,926.78
2018-10-18T02:28:23.548Z,926.79
2018-10-18T02:28:36.122Z,926.76
2018-10-18T02:28:48.654Z,926.75
2018-10-18T02:29:00.310Z,926.75
2018-10-18T02:29:13.274Z,926.76
2018-10-18T02:29:26.273Z,926.74
2018-10-18T02:29:38.334Z,926.76
2018-10-18T02:29:51.380Z,926.73
2018-10-18T02:30:03.644Z,926.7
2018-10-18T02:30:16.332Z,926.69
2018-10-18T02:30:29.233Z,926.69
2018-10-18T02:30:41.265Z,926.72
2018-10-18T02:30:54.236Z,926.69
2018-10-18T02:31:07.236Z,926.66
2018-10-18T02:31:19.755Z,926.65
2018-10-18T02:31:32.327Z,926.63
2018-10-18T02:31:44.875Z,926.63
2018-10-18T02:31:58.071Z,926.62
2018-10-18T02:32:10.121Z,926.62
2018-10-18T02:32:22.705Z,926.58
2018-10-18T02:32:35.274Z,926.61
2018-10-18T02:32:48.341Z,926.6
2018-10-18T02:33:01.338Z,926.64
2018-10-18T02:33:13.870Z,926.6
2018-10-18T02:33:26.905Z,926.62
2018-10-18T02:33:39.881Z,926.62
2018-10-18T02:33:52.356Z,926.59
2018-10-18T02:34:04.844Z,926.57
2018-10-18T02:34:17.942Z,926.6
2018-10-18T02:34:30.026Z,926.57
2018-10-18T02:34:43.053Z,926.58
2018-10-18T02:34:56.005Z,926.6
2018-10-18T02:35:09.001Z,926.58
2018-10-18T02:35:21.992Z,926.57
2018-10-18T02:35:35.026Z,926.54
2018-10-18T02:35:47.618Z,926.59
2018-10-18T02:36:00.829Z,926.56
2018-10-18T02:36:12.702Z,926.53
2018-10-18T02:36:25.794Z,926.56
2018-10-18T02:36:38.324Z,926.56
2018-10-18T02:36:51.328Z,926.55
2018-10-18T02:37:03.866Z,926.55
2018-10-18T02:37:16.874Z,926.54
2018-10-18T02:37:29.885Z,926.56
2018-10-18T02:37:42.885Z,926.53
2018-10-18T02:37:55.930Z,926.49
2018-10-18T02:38:08.481Z,926.5
2018-10-18T02:38:21.474Z,926.53
2018-10-18T02:38:33.985Z,926.55
2018-10-18T02:38:46.930Z,926.49
2018-10-18T02:38:59.901Z,926.48
2018-10-18T02:39:12.489Z,926.49